sensor_id;sensor_type;location;lat;lon;timestamp;temperature;humidity
36384;DHT22;22418;51.210;6.976;2023-07-22T00:01:47;16.90;99.90
36384;DHT22;22418;51.210;6.976;2023-07-22T00:04:18;16.90;99.90
36384;DHT22;22418;51.210;6.976;2023-07-22T00:06:49;16.90;99.90
36384;DHT22;22418;51.210;6.976;2023-07-22T00:09:19;16.90;99.90
36384;DHT22;22418;51.210;6.976;2023-07-22T00:11:50;16.90;99.90
36384;DHT22;22418;51.210;6.976;2023-07-22T00:14:20;16.90;99.90
36384;DHT22;22418;51.210;6.976;2023-07-22T00:16:51;16.90;99.90
36384;DHT22;22418;51.210;6.976;2023-07-22T00:19:22;16.90;99.90
36384;DHT22;22418;51.210;6.976;2023-07-22T00:21:53;16.90;99.90
36384;DHT22;22418;51.210;6.976;2023-07-22T00:24:24;16.90;99.90
36384;DHT22;22418;51.210;6.976;2023-07-22T00:26:54;16.90;99.90
36384;DHT22;22418;51.210;6.976;2023-07-22T00:29:25;16.90;99.90
36384;DHT22;22418;51.210;6.976;2023-07-22T00:31:56;16.80;99.90
36384;DHT22;22418;51.210;6.976;2023-07-22T00:34:26;16.90;99.90
36384;DHT22;22418;51.210;6.976;2023-07-22T00:36:57;16.90;99.90
36384;DHT22;22418;51.210;6.976;2023-07-22T00:39:28;16.90;99.90
36384;DHT22;22418;51.210;6.976;2023-07-22T00:41:58;16.90;99.90
36384;DHT22;22418;51.210;6.976;2023-07-22T00:44:29;16.90;99.90
36384;DHT22;22418;51.210;6.976;2023-07-22T00:47:00;16.90;99.90
36384;DHT22;22418;51.210;6.976;2023-07-22T00:49:32;16.90;99.90
36384;DHT22;22418;51.210;6.976;2023-07-22T00:52:04;16.90;99.90
36384;DHT22;22418;51.210;6.976;2023-07-22T00:54:35;16.90;99.90
36384;DHT22;22418;51.210;6.976;2023-07-22T00:57:06;16.90;99.90
36384;DHT22;22418;51.210;6.976;2023-07-22T00:59:38;16.90;99.90
36384;DHT22;22418;51.210;6.976;2023-07-22T01:02:09;16.90;99.90
36384;DHT22;22418;51.210;6.976;2023-07-22T01:04:40;16.90;99.90
36384;DHT22;22418;51.210;6.976;2023-07-22T01:07:11;17.00;99.90
36384;DHT22;22418;51.210;6.976;2023-07-22T01:09:43;16.90;99.90
36384;DHT22;22418;51.210;6.976;2023-07-22T01:12:13;16.90;99.90
36384;DHT22;22418;51.210;6.976;2023-07-22T01:14:44;17.00;99.90
36384;DHT22;22418;51.210;6.976;2023-07-22T01:17:14;17.00;99.90
36384;DHT22;22418;51.210;6.976;2023-07-22T01:19:46;16.90;99.90
36384;DHT22;22418;51.210;6.976;2023-07-22T01:22:17;17.00;99.90
36384;DHT22;22418;51.210;6.976;2023-07-22T01:24:48;17.00;99.90
36384;DHT22;22418;51.210;6.976;2023-07-22T01:27:19;17.10;99.90
36384;DHT22;22418;51.210;6.976;2023-07-22T01:29:53;17.00;99.90
36384;DHT22;22418;51.210;6.976;2023-07-22T01:32:24;17.00;99.90
36384;DHT22;22418;51.210;6.976;2023-07-22T01:34:54;16.90;99.90
36384;DHT22;22418;51.210;6.976;2023-07-22T01:37:25;17.00;99.90
36384;DHT22;22418;51.210;6.976;2023-07-22T01:39:55;16.90;99.90
36384;DHT22;22418;51.210;6.976;2023-07-22T01:42:27;16.80;99.90
36384;DHT22;22418;51.210;6.976;2023-07-22T01:44:58;16.90;99.90
36384;DHT22;22418;51.210;6.976;2023-07-22T01:47:28;16.90;99.90
36384;DHT22;22418;51.210;6.976;2023-07-22T01:49:59;16.90;99.90
36384;DHT22;22418;51.210;6.976;2023-07-22T01:52:30;16.90;99.90
36384;DHT22;22418;51.210;6.976;2023-07-22T01:55:00;16.90;99.90
36384;DHT22;22418;51.210;6.976;2023-07-22T01:57:34;16.90;99.90
36384;DHT22;22418;51.210;6.976;2023-07-22T02:00:05;16.90;99.90
36384;DHT22;22418;51.210;6.976;2023-07-22T02:02:37;16.90;99.90
36384;DHT22;22418;51.210;6.976;2023-07-22T02:05:08;16.80;99.90
36384;DHT22;22418;51.210;6.976;2023-07-22T02:07:42;16.80;99.90
36384;DHT22;22418;51.210;6.976;2023-07-22T02:10:13;16.80;99.90
36384;DHT22;22418;51.210;6.976;2023-07-22T02:12:43;16.80;99.90
36384;DHT22;22418;51.210;6.976;2023-07-22T02:15:14;16.80;99.90
36384;DHT22;22418;51.210;6.976;2023-07-22T02:17:46;16.80;99.90
36384;DHT22;22418;51.210;6.976;2023-07-22T02:20:16;16.80;99.90
36384;DHT22;22418;51.210;6.976;2023-07-22T02:22:47;16.70;99.90
36384;DHT22;22418;51.210;6.976;2023-07-22T02:25:18;16.70;99.90
36384;DHT22;22418;51.210;6.976;2023-07-22T02:27:48;16.70;99.90
36384;DHT22;22418;51.210;6.976;2023-07-22T02:30:19;16.70;99.90
36384;DHT22;22418;51.210;6.976;2023-07-22T02:32:50;16.80;99.90
36384;DHT22;22418;51.210;6.976;2023-07-22T02:35:20;16.80;99.90
36384;DHT22;22418;51.210;6.976;2023-07-22T02:37:51;16.70;99.90
36384;DHT22;22418;51.210;6.976;2023-07-22T02:40:21;16.70;99.90
36384;DHT22;22418;51.210;6.976;2023-07-22T02:42:52;16.70;99.90
36384;DHT22;22418;51.210;6.976;2023-07-22T02:45:22;16.70;99.90
36384;DHT22;22418;51.210;6.976;2023-07-22T02:47:53;16.70;99.90
36384;DHT22;22418;51.210;6.976;2023-07-22T02:50:25;16.80;99.90
36384;DHT22;22418;51.210;6.976;2023-07-22T02:52:55;16.80;99.90
36384;DHT22;22418;51.210;6.976;2023-07-22T02:55:26;16.70;99.90
36384;DHT22;22418;51.210;6.976;2023-07-22T02:57:56;16.70;99.90
36384;DHT22;22418;51.210;6.976;2023-07-22T03:00:27;16.70;99.90
36384;DHT22;22418;51.210;6.976;2023-07-22T03:02:58;16.70;99.90
36384;DHT22;22418;51.210;6.976;2023-07-22T03:05:31;16.70;99.90
36384;DHT22;22418;51.210;6.976;2023-07-22T03:08:03;16.70;99.90
36384;DHT22;22418;51.210;6.976;2023-07-22T03:10:33;16.70;99.90
36384;DHT22;22418;51.210;6.976;2023-07-22T03:13:04;16.70;99.90
36384;DHT22;22418;51.210;6.976;2023-07-22T03:15:34;16.60;99.90
36384;DHT22;22418;51.210;6.976;2023-07-22T03:18:05;16.60;99.90
36384;DHT22;22418;51.210;6.976;2023-07-22T03:20:39;16.70;99.90
36384;DHT22;22418;51.210;6.976;2023-07-22T03:23:10;16.60;99.90
36384;DHT22;22418;51.210;6.976;2023-07-22T03:25:41;16.70;99.90
36384;DHT22;22418;51.210;6.976;2023-07-22T03:28:11;16.60;99.90
36384;DHT22;22418;51.210;6.976;2023-07-22T03:30:42;16.70;99.90
36384;DHT22;22418;51.210;6.976;2023-07-22T03:33:12;16.70;99.90
36384;DHT22;22418;51.210;6.976;2023-07-22T03:35:45;16.60;99.90
36384;DHT22;22418;51.210;6.976;2023-07-22T03:38:16;16.60;99.90
36384;DHT22;22418;51.210;6.976;2023-07-22T03:40:46;16.60;99.90
36384;DHT22;22418;51.210;6.976;2023-07-22T03:43:17;16.70;99.90
36384;DHT22;22418;51.210;6.976;2023-07-22T03:45:48;16.70;99.90
36384;DHT22;22418;51.210;6.976;2023-07-22T03:48:18;16.70;99.90
36384;DHT22;22418;51.210;6.976;2023-07-22T03:50:49;16.70;99.90
36384;DHT22;22418;51.210;6.976;2023-07-22T03:53:20;16.60;99.90
36384;DHT22;22418;51.210;6.976;2023-07-22T03:55:51;16.60;99.90
36384;DHT22;22418;51.210;6.976;2023-07-22T03:58:21;16.70;99.90
36384;DHT22;22418;51.210;6.976;2023-07-22T04:00:52;16.60;99.90
36384;DHT22;22418;51.210;6.976;2023-07-22T04:03:23;16.60;99.90
36384;DHT22;22418;51.210;6.976;2023-07-22T04:05:54;16.70;99.90
36384;DHT22;22418;51.210;6.976;2023-07-22T04:08:25;16.70;99.90
36384;DHT22;22418;51.210;6.976;2023-07-22T04:10:57;16.60;99.90
36384;DHT22;22418;51.210;6.976;2023-07-22T04:13:27;16.70;99.90
36384;DHT22;22418;51.210;6.976;2023-07-22T04:15:58;16.70;99.90
36384;DHT22;22418;51.210;6.976;2023-07-22T04:18:28;16.70;99.90
36384;DHT22;22418;51.210;6.976;2023-07-22T04:21:04;16.70;99.90
36384;DHT22;22418;51.210;6.976;2023-07-22T04:23:35;16.70;99.90
36384;DHT22;22418;51.210;6.976;2023-07-22T04:26:05;16.70;99.90
36384;DHT22;22418;51.210;6.976;2023-07-22T04:28:37;16.70;99.90
36384;DHT22;22418;51.210;6.976;2023-07-22T04:31:08;16.70;99.90
36384;DHT22;22418;51.210;6.976;2023-07-22T04:33:39;16.70;99.90
36384;DHT22;22418;51.210;6.976;2023-07-22T04:36:11;16.80;99.90
36384;DHT22;22418;51.210;6.976;2023-07-22T04:38:42;16.80;99.90
36384;DHT22;22418;51.210;6.976;2023-07-22T04:41:13;16.80;99.90
36384;DHT22;22418;51.210;6.976;2023-07-22T04:43:43;16.80;99.90
36384;DHT22;22418;51.210;6.976;2023-07-22T04:46:14;16.80;99.90
36384;DHT22;22418;51.210;6.976;2023-07-22T04:48:45;16.80;99.90
36384;DHT22;22418;51.210;6.976;2023-07-22T04:51:16;16.80;99.90
36384;DHT22;22418;51.210;6.976;2023-07-22T04:53:47;16.80;99.90
36384;DHT22;22418;51.210;6.976;2023-07-22T04:56:17;16.90;99.90
36384;DHT22;22418;51.210;6.976;2023-07-22T04:58:48;16.90;99.90
36384;DHT22;22418;51.210;6.976;2023-07-22T05:01:19;17.00;99.90
36384;DHT22;22418;51.210;6.976;2023-07-22T05:03:50;17.00;99.90
36384;DHT22;22418;51.210;6.976;2023-07-22T05:06:21;16.90;99.90
36384;DHT22;22418;51.210;6.976;2023-07-22T05:08:52;16.90;99.90
36384;DHT22;22418;51.210;6.976;2023-07-22T05:11:22;16.90;99.90
36384;DHT22;22418;51.210;6.976;2023-07-22T05:13:53;17.00;99.90
36384;DHT22;22418;51.210;6.976;2023-07-22T05:16:24;17.10;99.90
36384;DHT22;22418;51.210;6.976;2023-07-22T05:18:55;17.10;99.90
36384;DHT22;22418;51.210;6.976;2023-07-22T05:21:25;17.20;99.90
36384;DHT22;22418;51.210;6.976;2023-07-22T05:23:56;17.20;99.90
36384;DHT22;22418;51.210;6.976;2023-07-22T05:26:26;17.30;99.90
36384;DHT22;22418;51.210;6.976;2023-07-22T05:28:59;17.40;99.90
36384;DHT22;22418;51.210;6.976;2023-07-22T05:31:30;17.70;99.90
36384;DHT22;22418;51.210;6.976;2023-07-22T05:34:00;17.90;99.90
36384;DHT22;22418;51.210;6.976;2023-07-22T05:36:31;18.50;99.90
36384;DHT22;22418;51.210;6.976;2023-07-22T05:39:01;19.00;99.90
36384;DHT22;22418;51.210;6.976;2023-07-22T05:41:35;19.20;99.90
36384;DHT22;22418;51.210;6.976;2023-07-22T05:44:06;19.50;99.90
36384;DHT22;22418;51.210;6.976;2023-07-22T05:46:36;19.90;99.90
36384;DHT22;22418;51.210;6.976;2023-07-22T05:49:09;19.90;99.90
36384;DHT22;22418;51.210;6.976;2023-07-22T05:51:40;20.10;99.90
36384;DHT22;22418;51.210;6.976;2023-07-22T05:54:11;20.30;99.90
36384;DHT22;22418;51.210;6.976;2023-07-22T05:56:42;20.50;99.90
36384;DHT22;22418;51.210;6.976;2023-07-22T05:59:12;20.60;99.90
36384;DHT22;22418;51.210;6.976;2023-07-22T06:01:43;20.90;99.90
36384;DHT22;22418;51.210;6.976;2023-07-22T06:04:13;21.00;99.90
36384;DHT22;22418;51.210;6.976;2023-07-22T06:06:44;21.30;99.90
36384;DHT22;22418;51.210;6.976;2023-07-22T06:09:15;21.50;99.90
36384;DHT22;22418;51.210;6.976;2023-07-22T06:11:45;21.60;99.90
36384;DHT22;22418;51.210;6.976;2023-07-22T06:14:16;21.70;99.90
36384;DHT22;22418;51.210;6.976;2023-07-22T06:16:46;21.60;99.90
36384;DHT22;22418;51.210;6.976;2023-07-22T06:19:17;21.60;99.90
36384;DHT22;22418;51.210;6.976;2023-07-22T06:21:48;21.40;99.90
36384;DHT22;22418;51.210;6.976;2023-07-22T06:24:19;21.50;99.90
36384;DHT22;22418;51.210;6.976;2023-07-22T06:26:49;22.10;99.70
36384;DHT22;22418;51.210;6.976;2023-07-22T06:29:20;22.60;99.40
36384;DHT22;22418;51.210;6.976;2023-07-22T06:31:50;24.00;97.70
36384;DHT22;22418;51.210;6.976;2023-07-22T06:34:23;24.30;96.50
36384;DHT22;22418;51.210;6.976;2023-07-22T06:36:54;24.00;96.90
36384;DHT22;22418;51.210;6.976;2023-07-22T06:39:24;23.60;97.50
36384;DHT22;22418;51.210;6.976;2023-07-22T06:41:55;23.50;97.00
36384;DHT22;22418;51.210;6.976;2023-07-22T06:44:25;23.10;97.40
36384;DHT22;22418;51.210;6.976;2023-07-22T06:46:56;23.20;97.40
36384;DHT22;22418;51.210;6.976;2023-07-22T06:49:27;23.60;96.90
36384;DHT22;22418;51.210;6.976;2023-07-22T06:51:57;23.70;96.80
36384;DHT22;22418;51.210;6.976;2023-07-22T06:54:28;23.70;96.90
36384;DHT22;22418;51.210;6.976;2023-07-22T06:56:59;24.50;96.10
36384;DHT22;22418;51.210;6.976;2023-07-22T06:59:29;25.60;95.00
36384;DHT22;22418;51.210;6.976;2023-07-22T07:02:00;26.30;93.70
36384;DHT22;22418;51.210;6.976;2023-07-22T07:04:30;26.60;92.80
36384;DHT22;22418;51.210;6.976;2023-07-22T07:07:01;26.80;92.40
36384;DHT22;22418;51.210;6.976;2023-07-22T07:09:33;26.40;92.90
36384;DHT22;22418;51.210;6.976;2023-07-22T07:12:05;26.60;92.10
36384;DHT22;22418;51.210;6.976;2023-07-22T07:14:36;25.70;92.70
36384;DHT22;22418;51.210;6.976;2023-07-22T07:17:06;25.10;93.10
36384;DHT22;22418;51.210;6.976;2023-07-22T07:19:37;24.70;93.40
36384;DHT22;22418;51.210;6.976;2023-07-22T07:22:08;24.70;93.60
36384;DHT22;22418;51.210;6.976;2023-07-22T07:24:38;25.30;93.10
36384;DHT22;22418;51.210;6.976;2023-07-22T07:27:09;25.10;93.50
36384;DHT22;22418;51.210;6.976;2023-07-22T07:29:39;25.30;93.30
36384;DHT22;22418;51.210;6.976;2023-07-22T07:32:10;25.80;92.80
36384;DHT22;22418;51.210;6.976;2023-07-22T07:34:40;25.80;92.70
36384;DHT22;22418;51.210;6.976;2023-07-22T07:37:11;25.60;93.30
36384;DHT22;22418;51.210;6.976;2023-07-22T07:39:42;25.40;93.40
36384;DHT22;22418;51.210;6.976;2023-07-22T07:42:12;25.30;93.20
36384;DHT22;22418;51.210;6.976;2023-07-22T07:44:43;25.00;93.30
36384;DHT22;22418;51.210;6.976;2023-07-22T07:47:13;24.50;94.20
36384;DHT22;22418;51.210;6.976;2023-07-22T07:49:44;24.10;94.90
36384;DHT22;22418;51.210;6.976;2023-07-22T07:52:15;23.90;94.70
36384;DHT22;22418;51.210;6.976;2023-07-22T07:54:46;23.50;95.30
36384;DHT22;22418;51.210;6.976;2023-07-22T07:57:16;23.20;95.60
36384;DHT22;22418;51.210;6.976;2023-07-22T07:59:47;23.40;94.50
36384;DHT22;22418;51.210;6.976;2023-07-22T08:02:20;23.70;94.70
36384;DHT22;22418;51.210;6.976;2023-07-22T08:04:50;24.30;93.40
36384;DHT22;22418;51.210;6.976;2023-07-22T08:07:22;24.60;93.00
36384;DHT22;22418;51.210;6.976;2023-07-22T08:09:52;24.80;92.70
36384;DHT22;22418;51.210;6.976;2023-07-22T08:12:23;24.90;92.90
36384;DHT22;22418;51.210;6.976;2023-07-22T08:14:53;25.00;92.60
36384;DHT22;22418;51.210;6.976;2023-07-22T08:17:24;25.10;92.60
36384;DHT22;22418;51.210;6.976;2023-07-22T08:19:55;25.00;92.80
36384;DHT22;22418;51.210;6.976;2023-07-22T08:22:25;24.80;92.20
36384;DHT22;22418;51.210;6.976;2023-07-22T08:24:56;24.50;92.70
36384;DHT22;22418;51.210;6.976;2023-07-22T08:27:26;24.30;93.40
36384;DHT22;22418;51.210;6.976;2023-07-22T08:29:57;24.20;93.10
36384;DHT22;22418;51.210;6.976;2023-07-22T08:32:27;24.30;92.90
36384;DHT22;22418;51.210;6.976;2023-07-22T08:34:58;24.20;93.20
36384;DHT22;22418;51.210;6.976;2023-07-22T08:37:29;24.30;93.70
36384;DHT22;22418;51.210;6.976;2023-07-22T08:40:00;24.40;93.70
36384;DHT22;22418;51.210;6.976;2023-07-22T08:42:31;24.60;93.50
36384;DHT22;22418;51.210;6.976;2023-07-22T08:45:03;24.80;93.30
36384;DHT22;22418;51.210;6.976;2023-07-22T08:47:35;25.00;93.10
36384;DHT22;22418;51.210;6.976;2023-07-22T08:50:09;25.10;93.00
36384;DHT22;22418;51.210;6.976;2023-07-22T08:52:41;25.20;92.20
36384;DHT22;22418;51.210;6.976;2023-07-22T08:55:13;25.20;92.50
36384;DHT22;22418;51.210;6.976;2023-07-22T08:57:45;25.20;91.10
36384;DHT22;22418;51.210;6.976;2023-07-22T09:00:16;25.10;91.30
36384;DHT22;22418;51.210;6.976;2023-07-22T09:02:48;25.00;91.60
36384;DHT22;22418;51.210;6.976;2023-07-22T09:05:19;24.90;91.40
36384;DHT22;22418;51.210;6.976;2023-07-22T09:07:50;24.80;91.70
36384;DHT22;22418;51.210;6.976;2023-07-22T09:10:22;24.80;91.90
36384;DHT22;22418;51.210;6.976;2023-07-22T09:12:54;24.70;91.60
36384;DHT22;22418;51.210;6.976;2023-07-22T09:15:25;24.70;91.50
36384;DHT22;22418;51.210;6.976;2023-07-22T09:17:56;24.70;91.30
36384;DHT22;22418;51.210;6.976;2023-07-22T09:20:27;24.70;92.10
36384;DHT22;22418;51.210;6.976;2023-07-22T09:23:00;24.80;91.80
36384;DHT22;22418;51.210;6.976;2023-07-22T09:25:30;24.80;91.50
36384;DHT22;22418;51.210;6.976;2023-07-22T09:28:02;25.00;91.10
36384;DHT22;22418;51.210;6.976;2023-07-22T09:30:34;25.10;91.40
36384;DHT22;22418;51.210;6.976;2023-07-22T09:33:07;25.30;91.40
36384;DHT22;22418;51.210;6.976;2023-07-22T09:35:46;25.40;91.40
36384;DHT22;22418;51.210;6.976;2023-07-22T09:38:24;25.50;91.80
36384;DHT22;22418;51.210;6.976;2023-07-22T09:40:55;25.50;91.30
36384;DHT22;22418;51.210;6.976;2023-07-22T09:43:26;25.50;91.50
36384;DHT22;22418;51.210;6.976;2023-07-22T09:46:06;25.50;91.60
36384;DHT22;22418;51.210;6.976;2023-07-22T09:48:41;25.60;91.00
36384;DHT22;22418;51.210;6.976;2023-07-22T09:51:16;25.80;90.90
36384;DHT22;22418;51.210;6.976;2023-07-22T09:53:59;25.90;90.80
36384;DHT22;22418;51.210;6.976;2023-07-22T09:56:30;26.00;90.80
36384;DHT22;22418;51.210;6.976;2023-07-22T09:59:04;26.00;90.20
36384;DHT22;22418;51.210;6.976;2023-07-22T10:01:38;25.90;90.40
36384;DHT22;22418;51.210;6.976;2023-07-22T10:04:10;25.80;90.80
36384;DHT22;22418;51.210;6.976;2023-07-22T10:06:42;25.50;90.30
36384;DHT22;22418;51.210;6.976;2023-07-22T10:09:14;25.10;90.40
36384;DHT22;22418;51.210;6.976;2023-07-22T10:11:46;25.00;90.70
36384;DHT22;22418;51.210;6.976;2023-07-22T10:14:17;24.80;90.80
36384;DHT22;22418;51.210;6.976;2023-07-22T10:16:49;24.80;91.20
36384;DHT22;22418;51.210;6.976;2023-07-22T10:19:21;24.80;91.20
36384;DHT22;22418;51.210;6.976;2023-07-22T10:21:52;24.70;90.60
36384;DHT22;22418;51.210;6.976;2023-07-22T10:24:23;24.70;90.50
36384;DHT22;22418;51.210;6.976;2023-07-22T10:26:54;24.60;90.80
36384;DHT22;22418;51.210;6.976;2023-07-22T10:29:25;24.50;90.70
36384;DHT22;22418;51.210;6.976;2023-07-22T10:31:56;24.40;90.50
36384;DHT22;22418;51.210;6.976;2023-07-22T10:34:27;24.30;90.40
36384;DHT22;22418;51.210;6.976;2023-07-22T10:37:00;24.30;90.60
36384;DHT22;22418;51.210;6.976;2023-07-22T10:39:31;24.10;90.80
36384;DHT22;22418;51.210;6.976;2023-07-22T10:42:05;24.10;90.80
36384;DHT22;22418;51.210;6.976;2023-07-22T10:44:37;24.00;89.10
36384;DHT22;22418;51.210;6.976;2023-07-22T10:47:08;23.70;89.50
36384;DHT22;22418;51.210;6.976;2023-07-22T10:49:47;23.60;90.50
36384;DHT22;22418;51.210;6.976;2023-07-22T10:52:51;23.50;90.70
36384;DHT22;22418;51.210;6.976;2023-07-22T10:55:21;23.60;91.00
36384;DHT22;22418;51.210;6.976;2023-07-22T10:57:54;23.60;90.90
36384;DHT22;22418;51.210;6.976;2023-07-22T11:00:29;23.70;90.70
36384;DHT22;22418;51.210;6.976;2023-07-22T11:03:13;23.70;91.00
36384;DHT22;22418;51.210;6.976;2023-07-22T11:05:48;23.60;90.80
36384;DHT22;22418;51.210;6.976;2023-07-22T11:08:39;23.40;91.00
36384;DHT22;22418;51.210;6.976;2023-07-22T11:11:10;23.30;91.10
36384;DHT22;22418;51.210;6.976;2023-07-22T11:13:41;23.30;91.40
36384;DHT22;22418;51.210;6.976;2023-07-22T11:16:12;23.30;91.50
36384;DHT22;22418;51.210;6.976;2023-07-22T11:18:43;23.40;91.20
36384;DHT22;22418;51.210;6.976;2023-07-22T11:21:13;23.30;91.60
36384;DHT22;22418;51.210;6.976;2023-07-22T11:23:44;23.30;92.00
36384;DHT22;22418;51.210;6.976;2023-07-22T11:26:15;23.40;92.10
36384;DHT22;22418;51.210;6.976;2023-07-22T11:28:46;23.40;92.10
36384;DHT22;22418;51.210;6.976;2023-07-22T11:31:17;23.50;92.00
36384;DHT22;22418;51.210;6.976;2023-07-22T11:33:47;23.60;91.70
36384;DHT22;22418;51.210;6.976;2023-07-22T11:36:18;23.70;91.30
36384;DHT22;22418;51.210;6.976;2023-07-22T11:38:49;23.70;91.10
36384;DHT22;22418;51.210;6.976;2023-07-22T11:41:20;23.80;91.10
36384;DHT22;22418;51.210;6.976;2023-07-22T11:43:51;23.90;91.10
36384;DHT22;22418;51.210;6.976;2023-07-22T11:46:21;24.00;90.80
36384;DHT22;22418;51.210;6.976;2023-07-22T11:48:53;24.00;89.70
36384;DHT22;22418;51.210;6.976;2023-07-22T11:51:24;23.90;90.00
36384;DHT22;22418;51.210;6.976;2023-07-22T11:53:55;23.80;89.90
36384;DHT22;22418;51.210;6.976;2023-07-22T11:56:28;23.80;89.50
36384;DHT22;22418;51.210;6.976;2023-07-22T11:58:58;23.60;89.80
36384;DHT22;22418;51.210;6.976;2023-07-22T12:01:32;23.50;90.20
36384;DHT22;22418;51.210;6.976;2023-07-22T12:04:13;23.40;90.10
36384;DHT22;22418;51.210;6.976;2023-07-22T12:06:44;23.30;90.40
36384;DHT22;22418;51.210;6.976;2023-07-22T12:09:14;23.20;90.30
36384;DHT22;22418;51.210;6.976;2023-07-22T12:11:45;23.20;90.40
36384;DHT22;22418;51.210;6.976;2023-07-22T12:14:16;23.10;89.80
36384;DHT22;22418;51.210;6.976;2023-07-22T12:16:47;23.10;90.20
36384;DHT22;22418;51.210;6.976;2023-07-22T12:19:17;23.10;88.40
36384;DHT22;22418;51.210;6.976;2023-07-22T12:21:48;23.20;88.40
36384;DHT22;22418;51.210;6.976;2023-07-22T12:24:19;23.00;88.80
36384;DHT22;22418;51.210;6.976;2023-07-22T12:26:50;23.00;89.00
36384;DHT22;22418;51.210;6.976;2023-07-22T12:29:20;22.90;89.80
36384;DHT22;22418;51.210;6.976;2023-07-22T12:31:52;22.90;90.30
36384;DHT22;22418;51.210;6.976;2023-07-22T12:34:23;22.80;90.30
36384;DHT22;22418;51.210;6.976;2023-07-22T12:36:53;23.00;88.60
36384;DHT22;22418;51.210;6.976;2023-07-22T12:39:24;23.00;88.40
36384;DHT22;22418;51.210;6.976;2023-07-22T12:41:54;23.10;88.10
36384;DHT22;22418;51.210;6.976;2023-07-22T12:44:25;23.20;87.70
36384;DHT22;22418;51.210;6.976;2023-07-22T12:46:55;23.20;87.00
36384;DHT22;22418;51.210;6.976;2023-07-22T12:49:26;23.10;86.50
36384;DHT22;22418;51.210;6.976;2023-07-22T12:51:56;23.10;87.50
36384;DHT22;22418;51.210;6.976;2023-07-22T12:54:33;23.10;87.90
36384;DHT22;22418;51.210;6.976;2023-07-22T12:57:05;23.20;88.10
36384;DHT22;22418;51.210;6.976;2023-07-22T12:59:35;23.20;86.10
36384;DHT22;22418;51.210;6.976;2023-07-22T13:02:06;23.20;86.40
36384;DHT22;22418;51.210;6.976;2023-07-22T13:04:36;23.30;87.60
36384;DHT22;22418;51.210;6.976;2023-07-22T13:07:07;23.30;88.00
36384;DHT22;22418;51.210;6.976;2023-07-22T13:09:37;23.30;88.10
36384;DHT22;22418;51.210;6.976;2023-07-22T13:12:08;23.30;88.20
36384;DHT22;22418;51.210;6.976;2023-07-22T13:14:39;23.30;88.00
36384;DHT22;22418;51.210;6.976;2023-07-22T13:17:09;23.40;86.20
36384;DHT22;22418;51.210;6.976;2023-07-22T13:19:40;23.40;87.00
36384;DHT22;22418;51.210;6.976;2023-07-22T13:22:10;23.50;86.30
36384;DHT22;22418;51.210;6.976;2023-07-22T13:24:41;23.60;85.70
36384;DHT22;22418;51.210;6.976;2023-07-22T13:27:11;23.50;86.40
36384;DHT22;22418;51.210;6.976;2023-07-22T13:29:42;23.50;86.70
36384;DHT22;22418;51.210;6.976;2023-07-22T13:32:13;23.60;87.10
36384;DHT22;22418;51.210;6.976;2023-07-22T13:34:43;23.60;86.20
36384;DHT22;22418;51.210;6.976;2023-07-22T13:37:14;23.60;86.00
36384;DHT22;22418;51.210;6.976;2023-07-22T13:39:45;23.60;86.40
36384;DHT22;22418;51.210;6.976;2023-07-22T13:42:15;23.60;86.30
36384;DHT22;22418;51.210;6.976;2023-07-22T13:44:46;23.60;84.90
36384;DHT22;22418;51.210;6.976;2023-07-22T13:47:16;23.40;84.80
36384;DHT22;22418;51.210;6.976;2023-07-22T13:49:47;23.40;84.50
36384;DHT22;22418;51.210;6.976;2023-07-22T13:52:17;23.40;84.10
36384;DHT22;22418;51.210;6.976;2023-07-22T13:54:48;23.40;84.10
36384;DHT22;22418;51.210;6.976;2023-07-22T13:57:19;23.40;84.00
36384;DHT22;22418;51.210;6.976;2023-07-22T13:59:49;23.50;84.00
36384;DHT22;22418;51.210;6.976;2023-07-22T14:02:20;23.70;83.10
36384;DHT22;22418;51.210;6.976;2023-07-22T14:04:50;23.80;83.10
36384;DHT22;22418;51.210;6.976;2023-07-22T14:07:21;23.80;83.20
36384;DHT22;22418;51.210;6.976;2023-07-22T14:09:51;23.80;83.40
36384;DHT22;22418;51.210;6.976;2023-07-22T14:12:23;23.80;83.90
36384;DHT22;22418;51.210;6.976;2023-07-22T14:14:54;23.90;82.60
36384;DHT22;22418;51.210;6.976;2023-07-22T14:17:24;23.90;84.10
36384;DHT22;22418;51.210;6.976;2023-07-22T14:19:55;23.80;83.50
36384;DHT22;22418;51.210;6.976;2023-07-22T14:22:26;23.60;84.30
36384;DHT22;22418;51.210;6.976;2023-07-22T14:24:56;23.50;84.00
36384;DHT22;22418;51.210;6.976;2023-07-22T14:27:27;23.40;84.20
36384;DHT22;22418;51.210;6.976;2023-07-22T14:29:58;23.20;84.10
36384;DHT22;22418;51.210;6.976;2023-07-22T14:32:28;23.10;84.50
36384;DHT22;22418;51.210;6.976;2023-07-22T14:34:59;23.10;85.10
36384;DHT22;22418;51.210;6.976;2023-07-22T14:37:29;23.10;84.80
36384;DHT22;22418;51.210;6.976;2023-07-22T14:40:00;23.00;85.30
36384;DHT22;22418;51.210;6.976;2023-07-22T14:42:31;22.90;85.60
36384;DHT22;22418;51.210;6.976;2023-07-22T14:45:02;22.90;87.00
36384;DHT22;22418;51.210;6.976;2023-07-22T14:47:32;22.80;86.20
36384;DHT22;22418;51.210;6.976;2023-07-22T14:50:03;22.80;86.30
36384;DHT22;22418;51.210;6.976;2023-07-22T14:52:34;22.80;86.10
36384;DHT22;22418;51.210;6.976;2023-07-22T14:55:04;22.90;85.70
36384;DHT22;22418;51.210;6.976;2023-07-22T14:57:35;22.80;86.10
36384;DHT22;22418;51.210;6.976;2023-07-22T15:00:09;22.90;86.60
36384;DHT22;22418;51.210;6.976;2023-07-22T15:02:40;22.80;87.50
36384;DHT22;22418;51.210;6.976;2023-07-22T15:05:12;22.70;87.30
36384;DHT22;22418;51.210;6.976;2023-07-22T15:07:42;22.70;87.90
36384;DHT22;22418;51.210;6.976;2023-07-22T15:10:13;22.70;88.60
36384;DHT22;22418;51.210;6.976;2023-07-22T15:12:45;22.60;87.90
36384;DHT22;22418;51.210;6.976;2023-07-22T15:15:16;22.70;87.90
36384;DHT22;22418;51.210;6.976;2023-07-22T15:17:48;22.60;87.90
36384;DHT22;22418;51.210;6.976;2023-07-22T15:20:18;22.60;87.90
36384;DHT22;22418;51.210;6.976;2023-07-22T15:22:49;22.60;87.80
36384;DHT22;22418;51.210;6.976;2023-07-22T15:25:19;22.70;86.80
36384;DHT22;22418;51.210;6.976;2023-07-22T15:27:50;22.70;87.20
36384;DHT22;22418;51.210;6.976;2023-07-22T15:30:20;22.70;87.30
36384;DHT22;22418;51.210;6.976;2023-07-22T15:32:51;22.80;87.60
36384;DHT22;22418;51.210;6.976;2023-07-22T15:35:22;22.80;87.50
36384;DHT22;22418;51.210;6.976;2023-07-22T15:37:52;22.90;86.20
36384;DHT22;22418;51.210;6.976;2023-07-22T15:40:26;22.90;86.70
36384;DHT22;22418;51.210;6.976;2023-07-22T15:42:56;22.80;87.10
36384;DHT22;22418;51.210;6.976;2023-07-22T15:45:27;22.80;87.70
36384;DHT22;22418;51.210;6.976;2023-07-22T15:47:57;22.70;87.80
36384;DHT22;22418;51.210;6.976;2023-07-22T15:50:29;22.70;88.20
36384;DHT22;22418;51.210;6.976;2023-07-22T15:52:59;22.80;88.40
36384;DHT22;22418;51.210;6.976;2023-07-22T15:55:30;22.80;88.30